Time;durP1;ratioP1;P1;durP2;ratioP2;P2;SDS_P1;SDS_P2;PMS_P1;PMS_P2;Temp;Humidity;BMP_temperature;BMP_pressure;BME280_temperature;BME280_humidity;BME280_pressure;Samples;Min_cycle;Max_cycle;Signal;HPM_P1;HPM_P2
2022/03/25 00:01:43;;;;;;;0.10;0.10;;;;;;;12.85;25.86;99050.78;6253616;22;20141;-94
2022/03/25 00:04:10;;;;;;;0.57;0.43;;;;;;;12.88;26.15;99042.16;6277845;22;20030;-87
2022/03/25 00:06:36;;;;;;;0.20;0.20;;;;;;;12.94;26.16;99042.91;6276660;22;20706;-88
2022/03/25 00:09:01;;;;;;;0.00;0.00;;;;;;;13.00;26.41;99047.09;6278055;22;20525;-91
2022/03/25 00:11:27;;;;;;;0.00;0.00;;;;;;;13.03;25.41;99043.03;6285985;22;20030;-90
2022/03/25 00:13:53;;;;;;;0.03;0.03;;;;;;;13.06;25.29;99037.88;6277807;22;19999;-86
2022/03/25 00:16:18;;;;;;;4.28;1.08;;;;;;;13.10;25.66;99036.19;6276873;22;20002;-86
2022/03/25 00:18:44;;;;;;;1.10;1.02;;;;;;;13.13;25.39;99030.25;6277006;22;20065;-83
2022/03/25 00:21:09;;;;;;;0.35;0.35;;;;;;;13.20;25.28;99023.69;6277187;22;20011;-84
2022/03/25 00:23:35;;;;;;;2.50;1.67;;;;;;;13.22;25.42;99024.19;6277075;22;20433;-84
2022/03/25 00:26:01;;;;;;;0.10;0.10;;;;;;;13.25;25.27;99024.38;6276773;22;20498;-85
2022/03/25 00:28:26;;;;;;;0.13;0.08;;;;;;;13.28;25.54;99026.50;6277131;22;20003;-86
2022/03/25 00:30:52;;;;;;;0.20;0.20;;;;;;;13.31;25.16;99016.28;6277209;22;20352;-87
2022/03/25 00:33:17;;;;;;;0.20;0.20;;;;;;;13.33;25.25;99014.06;6278221;22;20030;-87
2022/03/25 00:35:44;;;;;;;0.32;0.32;;;;;;;13.32;25.12;99013.28;6278510;22;20004;-85
2022/03/25 00:38:09;;;;;;;0.00;0.00;;;;;;;13.34;25.00;99011.09;6279296;22;20007;-90
2022/03/25 00:40:35;;;;;;;0.25;0.25;;;;;;;13.36;25.51;99008.13;6278746;22;20015;-89
2022/03/25 00:43:00;;;;;;;0.00;0.00;;;;;;;13.38;25.72;99005.97;6278840;22;20013;-93
2022/03/25 00:45:28;;;;;;;0.10;0.10;;;;;;;13.38;25.27;99005.97;6278820;22;20455;-89
2022/03/25 00:47:59;;;;;;;0.10;0.10;;;;;;;13.41;24.91;99006.16;6280069;22;20007;-93
2022/03/25 00:50:27;;;;;;;0.00;0.00;;;;;;;13.40;25.25;99001.09;6254747;22;20007;-85
2022/03/25 00:52:53;;;;;;;0.63;0.63;;;;;;;13.41;25.12;99008.84;6278656;22;19999;-86
2022/03/25 00:55:19;;;;;;;0.28;0.28;;;;;;;13.43;25.25;99005.88;6278405;22;20434;-87
2022/03/25 00:57:45;;;;;;;0.25;0.25;;;;;;;13.43;25.49;98997.81;6278718;22;20006;-82
2022/03/25 01:00:11;;;;;;;0.05;0.05;;;;;;;13.40;24.98;98993.84;6279079;22;20487;-85
2022/03/25 01:02:36;;;;;;;0.00;0.00;;;;;;;13.42;25.27;98996.22;6278262;22;20423;-85
2022/03/25 01:05:02;;;;;;;0.35;0.35;;;;;;;13.43;25.08;98989.75;6278976;22;20467;-89
2022/03/25 01:07:27;;;;;;;0.10;0.10;;;;;;;13.43;25.27;98985.16;6278577;22;20007;-85
2022/03/25 01:09:53;;;;;;;0.40;0.40;;;;;;;13.43;25.58;98981.69;6278728;22;20440;-86
2022/03/25 01:12:21;;;;;;;0.10;0.10;;;;;;;13.46;25.38;98991.84;6278530;22;20011;-90
2022/03/25 01:14:47;;;;;;;0.10;0.10;;;;;;;13.44;25.11;98989.47;6279714;22;20004;-88
2022/03/25 01:17:13;;;;;;;0.90;0.90;;;;;;;13.46;25.21;98989.16;6278833;22;20011;-87
2022/03/25 01:19:38;;;;;;;1.15;1.02;;;;;;;13.47;25.29;98988.06;6278377;22;20517;-87
2022/03/25 01:22:05;;;;;;;0.30;0.30;;;;;;;13.49;25.15;98988.56;6278868;22;20490;-87
2022/03/25 01:24:30;;;;;;;0.25;0.25;;;;;;;13.53;24.93;98989.56;6278466;22;20149;-87
2022/03/25 01:26:56;;;;;;;0.63;0.63;;;;;;;13.54;25.17;99001.91;6278174;22;20046;-88
2022/03/25 01:29:22;;;;;;;0.30;0.30;;;;;;;13.48;25.31;98996.94;6278445;22;20088;-87
2022/03/25 01:31:48;;;;;;;0.32;0.32;;;;;;;13.47;24.87;98996.13;6278561;22;20385;-89
2022/03/25 01:34:15;;;;;;;0.20;0.20;;;;;;;13.46;25.06;98989.16;6279060;22;20015;-90
2022/03/25 01:36:41;;;;;;;0.75;0.73;;;;;;;13.44;25.17;99000.19;6278309;22;20014;-87
2022/03/25 01:39:06;;;;;;;0.10;0.10;;;;;;;13.42;25.28;99006.97;6278843;22;20007;-87
2022/03/25 01:41:32;;;;;;;0.32;0.32;;;;;;;13.39;24.77;98994.13;6278379;22;20003;-87
2022/03/25 01:44:00;;;;;;;0.20;0.20;;;;;;;13.41;25.21;99006.16;6278110;22;20014;-91
2022/03/25 01:46:26;;;;;;;0.10;0.10;;;;;;;13.40;25.46;99009.16;6278557;22;20094;-91
2022/03/25 01:48:53;;;;;;;0.10;0.10;;;;;;;13.37;25.38;99025.84;6278771;22;20003;-90
2022/03/25 01:51:23;;;;;;;0.70;0.70;;;;;;;13.36;25.40;99025.03;6275599;22;20026;-88
2022/03/25 01:53:48;;;;;;;0.52;0.52;;;;;;;13.36;25.59;99024.22;6277985;22;20060;-90
2022/03/25 01:56:23;;;;;;;0.40;0.40;;;;;;;13.32;25.58;99034.78;6278909;22;20011;-92
2022/03/25 01:58:49;;;;;;;0.68;0.68;;;;;;;13.35;25.76;99044.91;6278239;22;20090;-90
2022/03/25 02:01:15;;;;;;;0.10;0.10;;;;;;;13.33;25.62;99049.81;6278507;22;19999;-91
2022/03/25 02:03:41;;;;;;;0.00;0.00;;;;;;;13.34;25.92;99045.22;6284087;22;20018;-87
2022/03/25 02:06:06;;;;;;;0.55;0.55;;;;;;;13.35;25.46;99050.28;6282426;22;20090;-89
2022/03/25 02:08:32;;;;;;;0.25;0.25;;;;;;;13.27;25.64;99048.28;6278798;22;20015;-88
2022/03/25 02:10:59;;;;;;;0.00;0.00;;;;;;;13.22;25.65;99049.16;6278140;22;20011;-86
2022/03/25 02:13:25;;;;;;;0.10;0.10;;;;;;;13.18;25.65;99061.56;6278139;22;20089;-87
2022/03/25 02:15:50;;;;;;;0.40;0.40;;;;;;;13.12;25.51;99052.81;6278573;22;20432;-87
2022/03/25 02:18:20;;;;;;;0.57;0.57;;;;;;;13.10;26.14;99073.00;6278237;22;20333;-89
2022/03/25 02:20:48;;;;;;;0.15;0.15;;;;;;;13.03;25.97;99075.25;6278541;22;20023;-88
2022/03/25 02:23:14;;;;;;;0.15;0.15;;;;;;;12.71;27.66;99106.28;6278401;22;20015;-86
2022/03/25 02:25:41;;;;;;;0.30;0.30;;;;;;;12.35;28.00;99094.09;6278360;22;20433;-90
2022/03/25 02:28:08;;;;;;;0.85;0.85;;;;;;;11.94;29.21;99119.44;6278661;22;20441;-92
2022/03/25 02:30:38;;;;;;;0.30;0.30;;;;;;;11.53;30.11;99125.97;6252564;22;20003;-94
2022/03/25 02:33:12;;;;;;;0.47;0.47;;;;;;;11.12;31.28;99130.78;6277872;22;20428;-89
2022/03/25 02:38:43;;;;;;;0.50;0.50;;;;;;;10.39;32.53;99143.69;6250566;22;20029;-88
2022/03/25 02:42:08;;;;;;;1.40;1.03;;;;;;;10.15;33.15;99151.47;6289095;22;20002;-84
2022/03/25 03:16:25;;;;;;;0.30;0.30;;;;;;;9.47;32.14;99174.72;6250616;22;20015;-81
2022/03/25 03:19:33;;;;;;;0.20;0.20;;;;;;;9.48;31.70;99181.66;6187432;23;20005;-82
2022/03/25 03:22:50;;;;;;;1.38;1.38;;;;;;;9.52;31.55;99187.28;6183035;23;20001;-82
2022/03/25 03:32:57;;;;;;;0.40;0.40;;;;;;;9.61;30.64;99193.69;6067220;23;20029;-82
2022/03/25 03:36:04;;;;;;;1.33;1.30;;;;;;;9.62;30.56;99206.00;6040481;23;20057;-89
2022/03/25 03:38:36;;;;;;;8.57;1.45;;;;;;;9.63;30.77;99198.78;6202480;23;20431;-91
2022/03/25 03:41:06;;;;;;;0.10;0.10;;;;;;;9.68;30.61;99204.94;6171173;23;20005;-89
2022/03/25 03:44:24;;;;;;;0.20;0.20;;;;;;;9.71;30.49;99201.72;6203358;23;20516;-89
2022/03/25 03:47:11;;;;;;;0.47;0.47;;;;;;;9.77;30.46;99202.53;6139615;23;20005;-95
2022/03/25 03:49:37;;;;;;;0.08;0.08;;;;;;;9.71;30.75;99199.03;6207730;23;20071;-93
2022/03/25 03:52:05;;;;;;;1.55;1.38;;;;;;;9.81;30.37;99206.25;6224488;23;20010;-85
2022/03/25 03:54:32;;;;;;;0.10;0.10;;;;;;;9.84;30.38;99208.41;6197320;23;20071;-87
2022/03/25 03:56:59;;;;;;;0.10;0.10;;;;;;;9.84;30.31;99205.72;6223936;23;20093;-91
2022/03/25 03:59:25;;;;;;;0.00;0.00;;;;;;;9.92;30.10;99202.53;6196243;23;20063;-87
2022/03/25 04:01:51;;;;;;;0.10;0.10;;;;;;;9.96;30.48;99200.13;6222069;23;20106;-85
2022/03/25 04:04:17;;;;;;;0.00;0.00;;;;;;;9.99;30.29;99207.59;6221898;23;20009;-85
2022/03/25 04:06:43;;;;;;;0.00;0.00;;;;;;;10.03;30.21;99191.84;6222785;23;20090;-87
2022/03/25 04:09:09;;;;;;;0.00;0.00;;;;;;;10.06;30.20;99197.44;6222713;22;20488;-90
2022/03/25 04:11:34;;;;;;;0.40;0.40;;;;;;;10.10;30.20;99192.38;6222044;23;20010;-85
2022/03/25 04:14:00;;;;;;;0.00;0.00;;;;;;;10.09;30.03;99194.25;6222493;23;20690;-85
2022/03/25 04:16:25;;;;;;;0.00;0.00;;;;;;;10.14;30.19;99200.66;6222902;23;20010;-86
2022/03/25 04:18:51;;;;;;;0.00;0.00;;;;;;;10.11;29.72;99185.94;6224765;23;20402;-88
2022/03/25 04:21:16;;;;;;;0.00;0.00;;;;;;;10.13;29.94;99186.50;6222363;23;20010;-87
2022/03/25 04:23:42;;;;;;;0.00;0.00;;;;;;;10.15;30.33;99189.69;6222285;23;20017;-85
2022/03/25 04:26:07;;;;;;;0.00;0.00;;;;;;;10.18;29.92;99193.69;6254660;22;20015;-83
2022/03/25 04:28:33;;;;;;;0.03;0.03;;;;;;;10.23;30.25;99199.03;6278600;22;20003;-91
2022/03/25 04:30:59;;;;;;;0.13;0.13;;;;;;;10.29;30.55;99197.13;6278726;22;20038;-91
2022/03/25 04:33:48;;;;;;;0.00;0.00;;;;;;;10.38;30.59;99203.59;6254026;22;20364;-93
2022/03/25 04:36:15;;;;;;;0.00;0.00;;;;;;;10.48;30.95;99214.25;6284556;22;20022;-91
2022/03/25 04:38:41;;;;;;;0.00;0.00;;;;;;;10.57;30.87;99231.34;6278719;22;19999;-92
2022/03/25 04:41:10;;;;;;;0.10;0.10;;;;;;;10.68;31.05;99245.50;6278850;22;20003;-92
2022/03/25 04:43:39;;;;;;;0.00;0.00;;;;;;;10.81;31.28;99246.78;6279885;22;20037;-94
2022/03/25 04:46:05;;;;;;;0.00;0.00;;;;;;;10.93;30.61;99245.69;6281097;22;20063;-92
2022/03/25 04:48:33;;;;;;;0.30;0.30;;;;;;;11.04;30.88;99240.00;6279731;22;20528;-88
2022/03/25 04:50:59;;;;;;;0.00;0.00;;;;;;;11.21;30.46;99241.56;6254197;22;20035;-88
2022/03/25 04:53:26;;;;;;;0.00;0.00;;;;;;;11.38;30.49;99242.00;6278667;22;19995;-86
2022/03/25 04:55:53;;;;;;;0.08;0.08;;;;;;;11.57;29.90;99237.88;6279513;22;20003;-91
2022/03/25 04:58:19;;;;;;;0.10;0.10;;;;;;;11.77;30.33;99234.28;6278297;22;20007;-85
2022/03/25 05:00:44;;;;;;;0.00;0.00;;;;;;;11.95;29.65;99238.13;6278322;22;20007;-84
2022/03/25 05:03:15;;;;;;;0.10;0.10;;;;;;;12.13;29.80;99248.22;6279572;22;20417;-95
2022/03/25 05:05:42;;;;;;;0.00;0.00;;;;;;;12.35;29.33;99243.47;6282334;22;20056;-92
2022/03/25 05:08:09;;;;;;;0.05;0.05;;;;;;;12.52;29.10;99246.53;6253263;22;20093;-91
2022/03/25 05:10:37;;;;;;;0.00;0.00;;;;;;;12.72;28.94;99258.13;6306995;22;20067;-92
2022/03/25 05:13:03;;;;;;;0.00;0.00;;;;;;;12.95;28.16;99256.53;6278411;22;20010;-88
2022/03/25 05:15:28;;;;;;;0.10;0.10;;;;;;;13.18;27.95;99256.81;6277576;22;20289;-78
2022/03/25 05:17:54;;;;;;;0.00;0.00;;;;;;;13.42;27.49;99259.47;6305476;22;19999;-77
2022/03/25 05:20:21;;;;;;;0.00;0.00;;;;;;;13.66;27.29;99259.41;6277019;22;20003;-77
2022/03/25 05:22:48;;;;;;;0.10;0.10;;;;;;;13.87;27.28;99262.59;6277863;22;20013;-77
2022/03/25 05:25:14;;;;;;;0.00;0.00;;;;;;;14.11;27.20;99253.63;6305743;22;20010;-77
2022/03/25 05:27:50;;;;;;;0.10;0.10;;;;;;;14.32;27.10;99251.38;6304729;22;20012;-76
2022/03/25 05:30:18;;;;;;;0.00;0.00;;;;;;;14.51;26.31;99262.09;6277646;22;20010;-76
2022/03/25 05:32:44;;;;;;;;;;;;;;;14.63;26.28;99263.50;6305702;22;20421;-77
2022/03/25 05:35:09;;;;;;;0.20;0.20;;;;;;;14.71;26.66;99270.91;6305455;22;19938;-76
2022/03/25 05:37:36;;;;;;;0.00;0.00;;;;;;;14.85;26.69;99260.94;6305122;22;20007;-76
2022/03/25 05:40:02;;;;;;;0.10;0.10;;;;;;;15.02;26.01;99263.03;6305595;22;20053;-77
2022/03/25 05:42:28;;;;;;;0.00;0.00;;;;;;;15.09;25.81;99264.53;6305287;22;20007;-77
2022/03/25 05:44:53;;;;;;;0.00;0.00;;;;;;;15.16;25.68;99263.03;6277897;22;20433;-77
2022/03/25 05:47:19;;;;;;;0.55;0.55;;;;;;;15.26;26.48;99262.03;6305325;22;20014;-77
2022/03/25 05:49:45;;;;;;;0.10;0.10;;;;;;;15.37;26.46;99265.31;6305807;22;20030;-77
2022/03/25 05:52:11;;;;;;;0.10;0.10;;;;;;;15.52;25.95;99272.25;6278114;22;20003;-77
2022/03/25 05:54:36;;;;;;;0.52;0.52;;;;;;;15.64;25.50;99269.81;6305430;22;20373;-77
2022/03/25 05:57:02;;;;;;;0.35;0.35;;;;;;;15.74;25.73;99263.41;6278205;22;20078;-77
2022/03/25 05:59:27;;;;;;;0.60;0.60;;;;;;;15.85;25.69;99264.00;6305116;22;20437;-77
2022/03/25 06:01:53;;;;;;;0.10;0.10;;;;;;;15.87;24.10;99258.28;6305269;22;20000;-78
2022/03/25 06:04:20;;;;;;;0.10;0.10;;;;;;;15.97;24.30;99266.16;6278292;22;20418;-78
2022/03/25 06:06:45;;;;;;;0.15;0.15;;;;;;;16.11;24.90;99266.06;6305490;22;20440;-78
2022/03/25 06:09:10;;;;;;;0.55;0.38;;;;;;;16.08;23.15;99262.09;6304821;22;20006;-79
2022/03/25 06:11:36;;;;;;;0.10;0.10;;;;;;;16.12;23.52;99270.38;6278893;22;20090;-79
2022/03/25 06:14:02;;;;;;;0.95;0.43;;;;;;;16.00;23.16;99271.72;6278111;22;20004;-78
2022/03/25 06:16:27;;;;;;;1.75;1.58;;;;;;;15.92;23.16;99274.38;6278005;22;20011;-78
2022/03/25 06:18:53;;;;;;;0.50;0.50;;;;;;;15.71;22.79;99277.50;6305013;22;20405;-78
2022/03/25 06:21:20;;;;;;;0.20;0.20;;;;;;;15.48;23.07;99274.75;6305499;22;20344;-78
2022/03/25 06:23:45;;;;;;;0.25;0.25;;;;;;;15.23;22.70;99286.88;6278151;22;20090;-78
2022/03/25 06:26:11;;;;;;;0.63;0.63;;;;;;;15.07;23.19;99278.28;6277591;22;20047;-77
2022/03/25 06:28:36;;;;;;;0.17;0.17;;;;;;;14.83;23.45;99282.00;6277662;22;20034;-78
2022/03/25 06:31:03;;;;;;;0.50;0.50;;;;;;;14.71;23.10;99281.69;6277656;22;20082;-77
2022/03/25 06:33:29;;;;;;;0.15;0.15;;;;;;;14.52;23.41;99284.41;6304951;22;20086;-77
2022/03/25 06:35:54;;;;;;;0.60;0.50;;;;;;;14.29;23.71;99286.16;6305133;22;20042;-75
2022/03/25 06:38:20;;;;;;;0.45;0.45;;;;;;;14.11;24.05;99282.41;6304550;22;20326;-77
2022/03/25 06:40:45;;;;;;;1.85;1.75;;;;;;;13.99;23.65;99288.22;6304841;22;20428;-77
2022/03/25 06:43:11;;;;;;;0.50;0.50;;;;;;;13.89;24.14;99287.31;6304868;22;19999;-76
2022/03/25 06:45:36;;;;;;;0.95;0.95;;;;;;;13.87;24.25;99286.00;6277315;22;20045;-77
2022/03/25 06:48:02;;;;;;;0.20;0.20;;;;;;;13.89;24.36;99295.38;6305226;22;20029;-76
2022/03/25 06:50:28;;;;;;;0.15;0.15;;;;;;;13.91;24.65;99278.94;6277271;22;20007;-76
2022/03/25 06:52:54;;;;;;;0.55;0.55;;;;;;;14.01;24.84;99281.47;6277783;22;20007;-77
2022/03/25 06:55:20;;;;;;;0.22;0.22;;;;;;;14.08;24.73;99281.09;6304672;22;20354;-77
2022/03/25 06:57:47;;;;;;;0.10;0.10;;;;;;;14.20;24.57;99277.97;6305063;22;20003;-77
2022/03/25 07:00:13;;;;;;;2.45;1.88;;;;;;;14.20;23.99;99283.34;6304643;22;20356;-76
2022/03/25 07:02:40;;;;;;;0.38;0.38;;;;;;;14.28;24.30;99277.28;6277001;22;20011;-76
2022/03/25 07:05:06;;;;;;;0.10;0.10;;;;;;;14.34;23.64;99283.38;6277612;22;20073;-76
2022/03/25 07:07:34;;;;;;;0.30;0.30;;;;;;;14.33;23.59;99282.59;6277326;22;20056;-76
2022/03/25 07:09:59;;;;;;;0.10;0.10;;;;;;;14.34;23.64;99284.19;6277217;22;20391;-76
2022/03/25 07:12:25;;;;;;;1.30;1.20;;;;;;;14.39;23.90;99284.09;6304507;22;20007;-77
2022/03/25 07:14:51;;;;;;;0.40;0.40;;;;;;;14.52;24.32;99289.78;6277434;22;20452;-77
2022/03/25 07:17:16;;;;;;;0.10;0.10;;;;;;;14.51;23.94;99282.81;6304923;22;20349;-77
2022/03/25 07:19:41;;;;;;;0.10;0.10;;;;;;;14.55;23.89;99284.63;6304548;22;20070;-78
2022/03/25 07:22:07;;;;;;;0.30;0.30;;;;;;;14.61;23.85;99284.53;6304717;22;20440;-76
2022/03/25 07:24:33;;;;;;;0.20;0.20;;;;;;;14.72;23.24;99292.16;6304327;22;20034;-76
2022/03/25 07:26:58;;;;;;;0.10;0.10;;;;;;;14.83;23.33;99292.75;6304610;22;20011;-75
2022/03/25 07:29:24;;;;;;;0.40;0.40;;;;;;;14.84;22.95;99296.25;6276890;22;20004;-77
2022/03/25 07:31:49;;;;;;;0.00;0.00;;;;;;;14.83;23.22;99292.75;6276645;22;20464;-77
2022/03/25 07:34:15;;;;;;;0.15;0.15;;;;;;;14.80;23.55;99290.66;6277338;22;20034;-77
2022/03/25 07:36:41;;;;;;;0.25;0.25;;;;;;;14.88;23.50;99291.88;6276973;22;20544;-77
2022/03/25 07:39:06;;;;;;;0.00;0.00;;;;;;;14.94;23.66;99285.28;6277620;22;20014;-76
2022/03/25 07:41:32;;;;;;;0.45;0.45;;;;;;;14.96;23.74;99287.69;6304188;22;20014;-76
2022/03/25 07:43:58;;;;;;;0.35;0.35;;;;;;;15.07;23.37;99281.00;6279448;22;20078;-76
2022/03/25 07:46:28;;;;;;;0.10;0.10;;;;;;;15.15;23.29;99279.50;6306552;22;20425;-76
2022/03/25 07:48:53;;;;;;;0.55;0.55;;;;;;;15.27;23.03;99284.38;6306929;22;20018;-76
2022/03/25 07:51:19;;;;;;;0.28;0.28;;;;;;;15.40;23.19;99288.94;6306451;22;20003;-77
2022/03/25 07:53:45;;;;;;;0.10;0.10;;;;;;;15.48;22.57;99285.53;6306572;22;20029;-77
2022/03/25 07:56:11;;;;;;;0.63;0.63;;;;;;;15.56;22.64;99281.31;6279386;22;20003;-77
2022/03/25 07:58:37;;;;;;;4.38;1.48;;;;;;;15.61;22.24;99281.22;6279098;22;20003;-77
2022/03/25 08:01:03;;;;;;;0.30;0.30;;;;;;;15.65;22.05;99282.19;6306743;22;20470;-77
2022/03/25 08:03:30;;;;;;;0.20;0.20;;;;;;;15.68;21.87;99281.59;6306942;22;19999;-77
2022/03/25 08:05:55;;;;;;;0.15;0.15;;;;;;;15.69;21.40;99277.78;6279286;22;20019;-76
2022/03/25 08:08:22;;;;;;;0.08;0.08;;;;;;;15.59;20.89;99278.03;6306362;22;19999;-78
2022/03/25 08:10:49;;;;;;;0.40;0.40;;;;;;;15.40;21.52;99267.38;6279451;22;20003;-78
2022/03/25 08:13:15;;;;;;;0.82;0.82;;;;;;;15.34;21.41;99282.06;6306762;22;20099;-78
2022/03/25 08:15:41;;;;;;;1.38;0.57;;;;;;;15.23;22.07;99269.91;6306386;22;19999;-78
2022/03/25 08:18:13;;;;;;;0.20;0.20;;;;;;;15.25;21.93;99267.72;6306707;22;20078;-78
2022/03/25 08:20:43;;;;;;;0.60;0.40;;;;;;;15.29;22.09;99263.31;6306568;22;20057;-78
2022/03/25 08:29:03;;;;;;;0.28;0.28;;;;;;;15.52;22.01;99266.88;6159902;22;20056;-77
2022/03/25 08:31:28;;;;;;;0.70;0.70;;;;;;;15.64;21.81;99263.66;6149633;23;20385;-77
2022/03/25 08:33:54;;;;;;;0.43;0.43;;;;;;;15.69;22.15;99258.91;6149818;23;20010;-77
2022/03/25 08:36:20;;;;;;;0.10;0.10;;;;;;;15.81;21.69;99254.91;6149835;23;20013;-78
2022/03/25 08:38:45;;;;;;;0.20;0.20;;;;;;;15.80;21.66;99256.00;6149829;22;20009;-78
2022/03/25 08:41:11;;;;;;;0.10;0.10;;;;;;;15.81;22.06;99244.13;6149618;23;20466;-77
2022/03/25 08:43:38;;;;;;;3.30;0.85;;;;;;;15.92;22.25;99236.63;6147902;22;20009;-77
2022/03/25 08:46:04;;;;;;;0.30;0.30;;;;;;;16.02;22.16;99244.44;6149316;23;20443;-77
2022/03/25 08:48:30;;;;;;;0.20;0.20;;;;;;;16.05;21.98;99240.34;6148894;23;20002;-77
2022/03/25 08:50:55;;;;;;;0.70;0.70;;;;;;;16.08;22.30;99240.50;6149217;23;20009;-77
2022/03/25 08:53:21;;;;;;;1.40;1.38;;;;;;;16.07;21.92;99238.13;6148034;23;20094;-78
2022/03/25 08:55:47;;;;;;;0.10;0.10;;;;;;;16.11;22.74;99239.09;6149425;23;20002;-77
2022/03/25 08:58:12;;;;;;;0.50;0.30;;;;;;;16.10;21.91;99232.09;6149341;23;20005;-77
2022/03/25 09:00:39;;;;;;;0.40;0.40;;;;;;;16.10;22.20;99241.00;6149146;23;20012;-77
2022/03/25 09:03:05;;;;;;;0.65;0.30;;;;;;;16.09;21.70;99225.94;6149501;23;20342;-77
2022/03/25 09:05:31;;;;;;;0.20;0.20;;;;;;;16.09;22.18;99227.84;6147487;22;20394;-76
2022/03/25 09:07:57;;;;;;;0.32;0.32;;;;;;;16.20;22.02;99222.97;6149553;23;20009;-76
2022/03/25 09:10:22;;;;;;;0.10;0.10;;;;;;;16.31;22.61;99230.50;6147463;22;20028;-76
2022/03/25 09:12:48;;;;;;;0.10;0.10;;;;;;;16.36;21.75;99221.47;6148632;23;20005;-76
2022/03/25 09:15:15;;;;;;;0.10;0.10;;;;;;;16.41;22.53;99229.44;6149191;22;20010;-76
2022/03/25 09:17:45;;;;;;;0.00;0.00;;;;;;;16.42;22.15;99212.13;6148933;23;20343;-76
2022/03/25 09:20:12;;;;;;;0.08;0.08;;;;;;;16.49;22.36;99222.50;6149217;23;20001;-76
2022/03/25 09:22:37;;;;;;;0.00;0.00;;;;;;;16.56;22.80;99212.03;6148893;23;20005;-75
2022/03/25 09:25:05;;;;;;;0.00;0.00;;;;;;;16.64;22.28;99221.28;6149098;23;20066;-76
2022/03/25 09:27:30;;;;;;;0.40;0.40;;;;;;;16.71;22.35;99212.72;6271503;22;20022;-76
2022/03/25 09:29:56;;;;;;;0.45;0.45;;;;;;;16.66;21.68;99208.25;6278208;22;20392;-76
2022/03/25 09:32:21;;;;;;;0.32;0.32;;;;;;;16.62;21.97;99210.78;6305255;22;20003;-75
2022/03/25 09:37:34;;;;;;;2.60;2.50;;;;;;;16.60;21.61;99206.78;6306803;22;20014;-78
2022/03/25 09:39:59;;;;;;;0.47;0.47;;;;;;;16.59;22.52;99202.53;6305982;22;20076;-78
2022/03/25 09:42:25;;;;;;;0.20;0.20;;;;;;;16.57;22.61;99197.41;6305671;22;20011;-78
2022/03/25 09:44:51;;;;;;;0.20;0.20;;;;;;;16.68;23.06;99205.25;6305706;22;20026;-78
2022/03/25 09:47:19;;;;;;;0.10;0.10;;;;;;;16.65;22.79;99188.56;6305559;22;20026;-76
2022/03/25 09:49:44;;;;;;;0.10;0.10;;;;;;;16.71;21.66;99197.31;6305441;22;19999;-76
2022/03/25 09:52:10;;;;;;;0.40;0.40;;;;;;;16.70;22.25;99193.03;6305442;22;20029;-76
2022/03/25 09:54:36;;;;;;;0.10;0.10;;;;;;;16.80;22.44;99191.94;6305326;22;20145;-76
2022/03/25 09:57:03;;;;;;;0.10;0.10;;;;;;;16.81;21.35;99190.84;6305582;22;20033;-77
2022/03/25 09:59:28;;;;;;;0.20;0.20;;;;;;;16.83;21.74;99188.59;6304914;22;20010;-76
2022/03/25 10:01:54;;;;;;;0.13;0.13;;;;;;;16.83;22.54;99177.00;6305597;22;20007;-78
2022/03/25 10:04:56;;;;;;;0.43;0.43;;;;;;;16.94;22.61;99179.13;6305090;22;20014;-79
2022/03/25 10:07:26;;;;;;;0.65;0.65;;;;;;;16.89;21.79;99187.34;6150496;23;20574;-79
2022/03/25 10:10:10;;;;;;;0.10;0.10;;;;;;;16.90;22.40;99180.81;6278539;22;20015;-78
2022/03/25 10:12:37;;;;;;;0.35;0.35;;;;;;;16.93;22.30;99176.72;6305423;22;20056;-78
2022/03/25 10:15:11;;;;;;;0.55;0.43;;;;;;;16.95;22.36;99164.53;6305738;22;20004;-78
2022/03/25 10:17:54;;;;;;;0.73;0.65;;;;;;;16.95;22.29;99155.59;6305266;22;20011;-78
2022/03/25 10:20:29;;;;;;;1.35;0.82;;;;;;;17.03;23.19;99162.13;6305450;22;19999;-77
2022/03/25 10:23:01;;;;;;;0.80;0.73;;;;;;;17.11;22.56;99153.25;6305423;22;20053;-77
2022/03/25 10:25:49;;;;;;;1.27;1.17;;;;;;;17.07;22.57;99150.38;6305203;22;20010;-78
2022/03/25 10:28:34;;;;;;;;;;;;;;;17.16;23.82;99153.06;6305657;22;20062;-77
2022/03/25 10:31:15;;;;;;;0.95;0.95;;;;;;;17.23;23.85;99149.91;6277364;22;19903;-77
2022/03/25 10:33:49;;;;;;;0.98;0.98;;;;;;;17.34;22.20;99145.00;6305106;22;20007;-78
2022/03/25 10:36:20;;;;;;;0.10;0.10;;;;;;;17.41;22.35;99145.31;6305337;22;19999;-77
2022/03/25 10:38:48;;;;;;;0.52;0.52;;;;;;;17.40;22.61;99147.19;6305235;22;20527;-77
2022/03/25 10:41:36;;;;;;;0.00;0.00;;;;;;;17.49;23.41;99138.28;6277739;22;20011;-77
2022/03/25 10:44:03;;;;;;;0.10;0.10;;;;;;;17.51;22.52;99131.44;6284766;22;20107;-78
2022/03/25 10:46:31;;;;;;;0.20;0.20;;;;;;;17.50;22.34;99124.44;6277158;22;20440;-78
2022/03/25 10:48:58;;;;;;;0.95;0.93;;;;;;;17.57;22.90;99132.09;6305021;22;20006;-78
2022/03/25 10:51:24;;;;;;;1.17;0.85;;;;;;;17.53;21.27;99142.75;6277288;22;20103;-78
2022/03/25 10:54:13;;;;;;;0.45;0.40;;;;;;;17.59;22.70;99133.34;6305074;22;20074;-78
2022/03/25 10:56:51;;;;;;;0.50;0.50;;;;;;;17.72;22.79;99125.38;6305173;22;20007;-78
2022/03/25 10:59:27;;;;;;;0.45;0.45;;;;;;;17.76;22.49;99115.50;6304802;22;20003;-78
2022/03/25 11:01:55;;;;;;;0.90;0.90;;;;;;;17.87;21.94;99126.75;6277630;22;20021;-78
2022/03/25 11:04:21;;;;;;;1.40;1.30;;;;;;;17.86;21.39;99112.44;6304529;22;20395;-78
2022/03/25 11:06:47;;;;;;;2.88;1.45;;;;;;;17.84;21.58;99101.16;6277131;22;20225;-77
2022/03/25 11:09:13;;;;;;;0.52;0.52;;;;;;;17.88;21.27;99112.94;6277397;22;20026;-79
2022/03/25 11:11:44;;;;;;;0.47;0.47;;;;;;;17.86;21.53;99107.03;6304014;22;19999;-78
2022/03/25 11:14:10;;;;;;;1.92;1.00;;;;;;;17.81;21.09;99104.50;6304570;22;20018;-78
2022/03/25 11:16:40;;;;;;;7.95;2.75;;;;;;;17.81;21.48;99103.72;6304221;22;20007;-77
2022/03/25 11:19:11;;;;;;;0.52;0.52;;;;;;;17.87;21.65;99099.72;6304894;22;20007;-77
2022/03/25 11:21:47;;;;;;;0.40;0.40;;;;;;;17.92;21.96;99094.94;6304405;22;20065;-76
2022/03/25 11:24:25;;;;;;;2.08;1.65;;;;;;;17.99;21.85;99091.75;6277290;22;20011;-76
2022/03/25 11:26:53;;;;;;;2.05;1.95;;;;;;;17.99;21.13;99093.66;6276673;22;20422;-76
2022/03/25 11:29:23;;;;;;;0.98;0.15;;;;;;;18.02;21.02;99085.69;6304120;22;20007;-76
2022/03/25 11:32:11;;;;;;;0.38;0.38;;;;;;;18.10;21.38;99085.97;6304587;22;20008;-77
2022/03/25 11:34:46;;;;;;;0.65;0.65;;;;;;;18.16;21.88;99073.84;6276886;22;20011;-76
2022/03/25 11:37:24;;;;;;;0.20;0.20;;;;;;;18.12;20.98;99062.09;6304574;22;20000;-78
2022/03/25 11:40:12;;;;;;;2.00;1.42;;;;;;;18.21;21.70;99066.34;6304465;22;20022;-78
2022/03/25 11:42:50;;;;;;;0.75;0.75;;;;;;;18.31;21.13;99070.59;6280084;22;20084;-78
2022/03/25 11:45:22;;;;;;;0.30;0.30;;;;;;;18.38;21.63;99065.47;6304794;22;20014;-76
2022/03/25 11:47:59;;;;;;;0.32;0.32;;;;;;;18.42;20.58;99071.00;6304535;22;20056;-77
2022/03/25 11:50:25;;;;;;;0.30;0.30;;;;;;;18.40;20.86;99057.00;6277109;22;20403;-79
2022/03/25 11:52:50;;;;;;;0.47;0.47;;;;;;;18.44;20.97;99051.72;6304946;22;20018;-79
2022/03/25 11:55:16;;;;;;;0.70;0.70;;;;;;;18.44;20.84;99044.38;6277570;22;20352;-79
2022/03/25 11:57:44;;;;;;;1.02;1.02;;;;;;;18.49;20.67;99038.00;6304666;22;20003;-78
2022/03/25 12:00:22;;;;;;;1.65;1.10;;;;;;;18.50;20.42;99036.88;6277219;22;20008;-78
2022/03/25 12:03:03;;;;;;;0.10;0.10;;;;;;;18.56;20.11;99040.97;6277464;22;20011;-79
2022/03/25 12:05:28;;;;;;;1.65;0.57;;;;;;;18.67;20.52;99027.81;6304127;22;20003;-79
2022/03/25 12:08:21;;;;;;;0.20;0.20;;;;;;;18.75;20.89;99031.59;6277271;22;20471;-78
2022/03/25 12:10:49;;;;;;;0.50;0.50;;;;;;;18.80;20.64;99013.22;6304462;22;20424;-77
2022/03/25 12:13:15;;;;;;;0.55;0.55;;;;;;;18.86;20.38;99024.66;6304656;22;20006;-78
2022/03/25 12:15:46;;;;;;;0.10;0.10;;;;;;;18.87;19.65;99016.19;6304436;22;20030;-78
2022/03/25 12:18:40;;;;;;;0.20;0.20;;;;;;;18.96;19.69;99024.28;6304706;22;20014;-77
2022/03/25 12:21:11;;;;;;;2.88;1.17;;;;;;;18.97;20.48;99012.31;6304337;22;20089;-78
2022/03/25 12:23:37;;;;;;;0.45;0.45;;;;;;;19.04;20.40;99023.41;6276472;22;20010;-78
2022/03/25 12:26:04;;;;;;;0.22;0.22;;;;;;;19.08;20.00;99011.88;6304464;22;20038;-77
2022/03/25 12:28:30;;;;;;;0.88;0.50;;;;;;;19.18;20.05;99028.53;6304974;22;20528;-78
2022/03/25 12:31:02;;;;;;;8.93;0.63;;;;;;;19.27;19.23;99008.66;6279095;22;20003;-78
2022/03/25 12:33:28;;;;;;;0.20;0.20;;;;;;;19.35;19.40;99024.84;6306070;22;20041;-78